Time;durP1;ratioP1;P1;durP2;ratioP2;P2;SDS_P1;SDS_P2;PMS_P1;PMS_P2;Temp;Humidity;BMP_temperature;BMP_pressure;BME280_temperature;BME280_humidity;BME280_pressure;Samples;Min_cycle;Max_cycle;Signal;HPM_P1;HPM_P2
2022/06/06 00:01:19;;;;;;;3.5;2.1;;;;;;;14.91;94.50293;940.2086;;;;
2022/06/06 00:03:44;;;;;;;1.9;1.6;;;;;;;14.86;94.49121;940.2048;;;;
2022/06/06 00:06:12;;;;;;;2.5;1.8;;;;;;;14.76;95.19629;940.0919;;;;
2022/06/06 00:08:41;;;;;;;2.2;1.9;;;;;;;14.81;95.93457;940.1117;;;;
2022/06/06 00:11:08;;;;;;;2.9;1.6;;;;;;;14.69;96.73633;940.1113;;;;
2022/06/06 00:13:31;;;;;;;2.6;1.7;;;;;;;14.58;96.2168;940.0553;;;;
2022/06/06 00:15:56;;;;;;;2.1;1.7;;;;;;;14.56;96.73145;939.9785;;;;
2022/06/06 00:18:21;;;;;;;2.6;1.9;;;;;;;14.55;96.4873;940.0178;;;;
2022/06/06 00:20:48;;;;;;;2.2;1.8;;;;;;;14.63;95.97559;939.9576;;;;
2022/06/06 00:23:13;;;;;;;2.9;1.9;;;;;;;14.66;95.29004;940.0161;;;;
2022/06/06 00:25:40;;;;;;;2.3;2.1;;;;;;;14.65;95.58789;940.0538;;;;
2022/06/06 00:28:05;;;;;;;2.3;1.8;;;;;;;14.62;95.24707;939.9369;;;;
2022/06/06 00:30:31;;;;;;;2.2;1.7;;;;;;;14.57;95.22559;940.0023;;;;
2022/06/06 00:35:21;;;;;;;3.2;1.8;;;;;;;14.3;96.78906;939.9009;;;;
2022/06/06 00:37:47;;;;;;;2;1.6;;;;;;;14.2;97.5498;939.9191;;;;
2022/06/06 00:40:14;;;;;;;3;1.8;;;;;;;14.36;97.35352;939.8527;;;;
2022/06/06 00:42:41;;;;;;;2.1;1.7;;;;;;;14.36;97.2959;939.7821;;;;
2022/06/06 00:45:06;;;;;;;4.5;2.1;;;;;;;14.37;97.25195;939.7316;;;;
2022/06/06 00:47:31;;;;;;;4.1;2;;;;;;;14.33;97.50879;939.7517;;;;
2022/06/06 00:49:56;;;;;;;2;1.7;;;;;;;14.37;96.89648;939.7084;;;;
2022/06/06 00:52:21;;;;;;;2.4;1.9;;;;;;;14.31;96.34375;939.7317;;;;
2022/06/06 00:54:47;;;;;;;2.2;1.9;;;;;;;14.33;95.78125;939.6925;;;;
2022/06/06 00:57:12;;;;;;;3.2;2;;;;;;;14.29;95.02441;939.6653;;;;
2022/06/06 00:59:37;;;;;;;2;1.8;;;;;;;14.3;94.88867;939.663;;;;
2022/06/06 01:02:02;;;;;;;2.2;2;;;;;;;14.23;94.64453;939.6567;;;;
2022/06/06 01:04:27;;;;;;;3;1.8;;;;;;;14.24;94.6123;939.6815;;;;
2022/06/06 01:07:17;;;;;;;3.7;2.2;;;;;;;14.31;95.18945;939.7478;;;;
2022/06/06 01:09:45;;;;;;;2.4;1.9;;;;;;;14.21;95.69824;939.7942;;;;
2022/06/06 01:12:10;;;;;;;4.8;2.3;;;;;;;14.12;96.04688;939.8392;;;;
2022/06/06 01:14:35;;;;;;;2.2;1.9;;;;;;;13.84;97.50391;939.8761;;;;
2022/06/06 01:17:00;;;;;;;2.3;1.7;;;;;;;13.91;98.17578;939.8608;;;;
2022/06/06 01:19:25;;;;;;;3.5;1.9;;;;;;;13.95;97.28613;939.8272;;;;
2022/06/06 01:21:50;;;;;;;4.1;2;;;;;;;13.97;96.98145;939.7463;;;;
2022/06/06 01:24:17;;;;;;;2;1.6;;;;;;;13.93;95.99121;939.7551;;;;
2022/06/06 01:26:42;;;;;;;2.5;1.9;;;;;;;13.8;97.78125;939.7614;;;;
2022/06/06 01:29:07;;;;;;;3.9;1.7;;;;;;;13.87;97.39453;939.7856;;;;
2022/06/06 01:31:33;;;;;;;2.1;1.9;;;;;;;13.89;96.39941;939.7952;;;;
2022/06/06 01:33:58;;;;;;;2.3;2;;;;;;;13.94;95.60547;939.7231;;;;
2022/06/06 01:36:23;;;;;;;6.2;2.1;;;;;;;13.82;95.53223;939.7944;;;;
2022/06/06 01:38:48;;;;;;;6;2.4;;;;;;;13.85;96.25098;939.7472;;;;
2022/06/06 01:42:05;;;;;;;2.6;1.8;;;;;;;13.76;96.51855;939.731;;;;
2022/06/06 01:44:30;;;;;;;2.7;1.9;;;;;;;13.53;97.22754;939.8459;;;;
2022/06/06 01:46:56;;;;;;;4.2;1.8;;;;;;;13.45;98.33594;939.841;;;;
2022/06/06 01:51:46;;;;;;;2.4;1.8;;;;;;;13.57;97.76465;939.8539;;;;
2022/06/06 01:54:11;;;;;;;4.5;2.2;;;;;;;13.5;97.58789;939.845;;;;
2022/06/06 01:56:36;;;;;;;3.6;1.9;;;;;;;13.5;96.84277;939.9051;;;;
2022/06/06 01:59:01;;;;;;;2.9;2.1;;;;;;;13.5;96.58789;939.9299;;;;
2022/06/06 02:01:27;;;;;;;2.6;2.3;;;;;;;13.47;96.81152;939.905;;;;
2022/06/06 02:04:12;;;;;;;2.3;2.1;;;;;;;13.52;96.69531;939.8947;;;;
2022/06/06 02:06:39;;;;;;;2.9;2.1;;;;;;;13.63;96.09766;939.9311;;;;
2022/06/06 02:09:04;;;;;;;5.5;2.5;;;;;;;13.65;95.4834;939.9078;;;;
2022/06/06 02:11:31;;;;;;;2.5;1.8;;;;;;;13.41;96.44336;939.9263;;;;
2022/06/06 02:13:56;;;;;;;2.8;2.2;;;;;;;13.28;97.74609;939.9182;;;;
2022/06/06 02:16:25;;;;;;;2.6;2;;;;;;;13.31;97.86719;939.9813;;;;
2022/06/06 02:18:50;;;;;;;3.6;2.4;;;;;;;13.3;97.6582;939.9838;;;;
2022/06/06 02:21:16;;;;;;;2.3;2.1;;;;;;;13.28;97.71387;939.9285;;;;
2022/06/06 02:23:42;;;;;;;3.1;2;;;;;;;13.29;97.56445;939.991;;;;
2022/06/06 02:26:07;;;;;;;2.2;2;;;;;;;13.32;97.18164;940.0142;;;;
2022/06/06 02:28:40;;;;;;;2;1.8;;;;;;;13.29;96.97754;940.0637;;;;
2022/06/06 02:31:05;;;;;;;3.6;2.3;;;;;;;13.15;97.30371;939.9916;;;;
2022/06/06 02:33:30;;;;;;;4.5;2.7;;;;;;;13.3;97.20996;940.0645;;;;
2022/06/06 02:35:55;;;;;;;3.1;2.2;;;;;;;13.36;96.51172;939.9918;;;;
2022/06/06 02:38:20;;;;;;;4;2.1;;;;;;;13.33;96.67773;940.0061;;;;
2022/06/06 02:40:50;;;;;;;2.7;2.1;;;;;;;13.31;96.40918;940.0013;;;;
2022/06/06 02:43:18;;;;;;;2.5;2.3;;;;;;;13.35;95.5;939.9614;;;;
2022/06/06 02:45:44;;;;;;;3.3;2.2;;;;;;;13.35;95.35059;939.9501;;;;
2022/06/06 02:48:07;;;;;;;2.4;2.2;;;;;;;13.23;95.65625;939.8876;;;;
2022/06/06 02:50:32;;;;;;;3.2;2.3;;;;;;;13.1;96.30566;939.9188;;;;
2022/06/06 02:52:58;;;;;;;2.8;2.1;;;;;;;13.13;96.42676;939.8925;;;;
2022/06/06 02:55:22;;;;;;;2.1;1.8;;;;;;;13.24;95.85156;939.9572;;;;
2022/06/06 02:57:47;;;;;;;2.4;2.2;;;;;;;13.11;96.06445;939.9292;;;;
2022/06/06 03:00:13;;;;;;;2.3;2.1;;;;;;;13.02;96.42578;939.8986;;;;
2022/06/06 03:02:38;;;;;;;4.3;2.5;;;;;;;12.95;96.83496;939.9069;;;;
2022/06/06 03:05:03;;;;;;;3;2.5;;;;;;;12.98;96.9668;939.9182;;;;
2022/06/06 03:07:28;;;;;;;2.6;2.4;;;;;;;12.8;97.41992;939.9708;;;;
2022/06/06 03:09:54;;;;;;;3.2;2.2;;;;;;;12.63;98.24219;939.9886;;;;
2022/06/06 03:12:20;;;;;;;2.6;2.1;;;;;;;12.59;99.04883;940.0145;;;;
2022/06/06 03:14:45;;;;;;;3.2;2.3;;;;;;;12.72;98.41211;939.8986;;;;
2022/06/06 03:22:01;;;;;;;2.2;2;;;;;;;12.82;97.81641;940.0559;;;;
2022/06/06 03:24:27;;;;;;;2.3;2.1;;;;;;;12.86;96.84668;940.0887;;;;
2022/06/06 03:26:52;;;;;;;3.3;2.3;;;;;;;12.8;97.47754;940.0524;;;;
2022/06/06 03:29:17;;;;;;;3.1;2.3;;;;;;;12.82;97.67676;940.0798;;;;
2022/06/06 03:31:45;;;;;;;3.9;2.3;;;;;;;12.83;97.42676;940.1135;;;;
2022/06/06 03:34:08;;;;;;;2.2;2;;;;;;;12.73;98.58594;940.1703;;;;
2022/06/06 03:36:33;;;;;;;2.9;2.3;;;;;;;12.78;98.17383;940.1802;;;;
2022/06/06 03:38:58;;;;;;;3;2.4;;;;;;;12.84;97.46484;940.0736;;;;
2022/06/06 03:41:23;;;;;;;3.3;2.3;;;;;;;12.83;97.18555;940.163;;;;
2022/06/06 03:43:48;;;;;;;2.6;2.2;;;;;;;12.84;97.31543;940.1487;;;;
2022/06/06 03:46:13;;;;;;;2.2;2;;;;;;;12.82;97.67871;940.2101;;;;
2022/06/06 03:49:38;;;;;;;2.3;1.8;;;;;;;12.74;97.58984;940.1951;;;;
2022/06/06 03:52:00;;;;;;;2.2;2;;;;;;;12.83;98.08105;940.1958;;;;
2022/06/06 03:54:25;;;;;;;2.4;2.2;;;;;;;12.77;97.23047;940.2017;;;;
2022/06/06 03:56:50;;;;;;;3;2;;;;;;;12.64;98.31543;940.2442;;;;
2022/06/06 03:59:15;;;;;;;2.5;2;;;;;;;12.58;98.83984;940.1998;;;;
2022/06/06 04:06:06;;;;;;;2.8;1.9;;;;;;;12.75;97.41992;940.2008;;;;
2022/06/06 04:08:32;;;;;;;3.6;1.8;;;;;;;12.8;96.92676;940.2513;;;;
2022/06/06 04:10:57;;;;;;;2.5;2;;;;;;;12.8;97.24805;940.2289;;;;
2022/06/06 04:13:22;;;;;;;2.3;1.9;;;;;;;12.85;96.3418;940.2255;;;;
2022/06/06 04:15:47;;;;;;;2.8;1.9;;;;;;;12.79;96.26074;940.2897;;;;
2022/06/06 04:18:14;;;;;;;2.3;2.1;;;;;;;12.75;96.44629;940.3119;;;;
2022/06/06 04:20:39;;;;;;;2.2;2;;;;;;;12.73;96.41699;940.327;;;;
2022/06/06 04:23:05;;;;;;;4.1;2;;;;;;;12.7;97.01953;940.3269;;;;
2022/06/06 04:25:30;;;;;;;2;1.9;;;;;;;12.85;96.62695;940.3397;;;;
2022/06/06 04:27:55;;;;;;;3.4;2;;;;;;;12.9;96.36328;940.4078;;;;
2022/06/06 04:30:22;;;;;;;2.6;2.2;;;;;;;12.83;96.10645;940.4116;;;;
2022/06/06 04:33:28;;;;;;;2.4;2.2;;;;;;;12.69;96.17969;940.3059;;;;
2022/06/06 04:35:53;;;;;;;2.2;2;;;;;;;12.59;97.08691;940.425;;;;
2022/06/06 04:38:18;;;;;;;2.3;2;;;;;;;12.49;97.53516;940.4765;;;;
2022/06/06 04:40:46;;;;;;;4.3;2.4;;;;;;;12.48;97.5332;940.4844;;;;
2022/06/06 04:43:11;;;;;;;3.4;2.3;;;;;;;12.46;97.36816;940.5897;;;;
2022/06/06 04:45:36;;;;;;;2;1.8;;;;;;;12.47;97.71191;940.5698;;;;
2022/06/06 04:48:01;;;;;;;3;2.2;;;;;;;12.32;99.00977;940.5974;;;;
2022/06/06 04:50:26;;;;;;;2.5;2.3;;;;;;;12.32;100;940.5941;;;;
2022/06/06 04:52:51;;;;;;;3.7;2.3;;;;;;;12.44;100;940.6119;;;;
2022/06/06 04:55:20;;;;;;;3.6;2.5;;;;;;;12.66;99.2832;940.5959;;;;
2022/06/06 04:57:45;;;;;;;3;2.4;;;;;;;12.87;97.81543;940.5508;;;;
2022/06/06 05:00:10;;;;;;;3.2;2.1;;;;;;;12.93;96.63574;940.6046;;;;
2022/06/06 05:02:35;;;;;;;4.2;2.8;;;;;;;13.32;98.13281;940.5588;;;;
2022/06/06 05:05:02;;;;;;;2.3;1.9;;;;;;;14.32;93.44141;940.5513;;;;
2022/06/06 05:08:41;;;;;;;1.9;1.7;;;;;;;15.3;87.58008;940.5073;;;;
2022/06/06 05:10:53;;;;;;;2.3;1.5;;;;;;;15.97;82.47656;940.46;;;;
2022/06/06 05:13:18;;;;;;;1.6;1.5;;;;;;;16.31;81.4873;940.5831;;;;
2022/06/06 05:15:43;;;;;;;1.3;1.2;;;;;;;17.49;76.9043;940.4778;;;;
2022/06/06 05:18:08;;;;;;;2.3;1.2;;;;;;;18.49;72.90332;940.3633;;;;
2022/06/06 05:20:33;;;;;;;1.4;1.3;;;;;;;19.96;67.20996;940.4416;;;;
2022/06/06 05:22:58;;;;;;;1.3;1.2;;;;;;;21.59;61.2168;940.3992;;;;
2022/06/06 05:25:24;;;;;;;1.4;1.3;;;;;;;20.99;60.98242;940.3517;;;;
2022/06/06 05:27:49;;;;;;;1.4;1.3;;;;;;;22.01;58.69629;940.3536;;;;
2022/06/06 05:30:14;;;;;;;3.1;1.3;;;;;;;22.61;56.55762;940.384;;;;
2022/06/06 05:32:39;;;;;;;0.8;0.8;;;;;;;22.19;56.30469;940.3427;;;;
2022/06/06 05:35:04;;;;;;;2.6;1;;;;;;;21.11;58.37793;940.3472;;;;
2022/06/06 05:37:29;;;;;;;0.8;0.8;;;;;;;20.47;60.37305;940.4274;;;;
2022/06/06 05:39:54;;;;;;;1.2;1.1;;;;;;;20.89;62.3252;940.4153;;;;
2022/06/06 05:42:20;;;;;;;1.2;1.1;;;;;;;21.78;58.73535;940.3776;;;;
2022/06/06 05:44:45;;;;;;;1;1;;;;;;;22.28;56.44434;940.3055;;;;
2022/06/06 05:47:10;;;;;;;1;1;;;;;;;21.98;57.65039;940.3471;;;;
2022/06/06 05:49:35;;;;;;;1.2;1.1;;;;;;;23.01;54.75195;940.351;;;;
2022/06/06 05:52:00;;;;;;;1.2;1;;;;;;;22;57.04199;940.2664;;;;
2022/06/06 05:54:25;;;;;;;2.8;1.5;;;;;;;24.19;54.07422;940.2701;;;;
2022/06/06 05:56:51;;;;;;;1.4;1.1;;;;;;;24.86;50.73438;940.2454;;;;
2022/06/06 05:59:16;;;;;;;1.4;1.1;;;;;;;24.48;50.01855;940.305;;;;
2022/06/06 06:01:41;;;;;;;1.4;1;;;;;;;25.07;50.41504;940.2664;;;;
2022/06/06 06:04:06;;;;;;;2.9;1.1;;;;;;;24.73;50.11719;940.2664;;;;
2022/06/06 06:06:31;;;;;;;1.2;1.1;;;;;;;24.39;50.00879;940.2555;;;;
2022/06/06 06:08:58;;;;;;;1.7;1.1;;;;;;;25.72;49.03516;940.2311;;;;
2022/06/06 06:11:21;;;;;;;1;1;;;;;;;25.41;46.46094;940.2378;;;;
2022/06/06 06:13:46;;;;;;;1.1;1;;;;;;;25.74;50.36035;940.2467;;;;
2022/06/06 06:16:38;;;;;;;1.3;1.1;;;;;;;25.37;46.46875;940.2252;;;;
2022/06/06 06:19:03;;;;;;;1.3;1.1;;;;;;;25.15;49.79883;940.1903;;;;
2022/06/06 06:21:28;;;;;;;1.9;1.1;;;;;;;26.86;45.35645;940.1479;;;;
2022/06/06 06:23:53;;;;;;;1.6;1;;;;;;;28.29;43.61035;940.1863;;;;
2022/06/06 06:26:18;;;;;;;1.8;1;;;;;;;25.66;45.81445;940.1609;;;;
2022/06/06 06:28:43;;;;;;;1;1;;;;;;;26.28;47.22656;940.1125;;;;
2022/06/06 06:31:08;;;;;;;1.9;1.4;;;;;;;27.28;43.15723;940.0731;;;;
2022/06/06 06:33:33;;;;;;;1.2;1.1;;;;;;;26.41;43.52344;940.0533;;;;
2022/06/06 06:35:58;;;;;;;1;0.9;;;;;;;24.45;49.6377;940.0536;;;;
2022/06/06 06:38:23;;;;;;;2.1;0.9;;;;;;;24.66;49.75684;940.0475;;;;
2022/06/06 06:40:48;;;;;;;1.4;1.3;;;;;;;24.52;49.5752;940.0695;;;;
2022/06/06 06:43:13;;;;;;;0.9;0.9;;;;;;;24.55;50.27344;940.0829;;;;
2022/06/06 06:45:42;;;;;;;1;1;;;;;;;27.63;42.27734;940.051;;;;
2022/06/06 06:48:06;;;;;;;1.8;1.3;;;;;;;26.9;47.17383;940.0076;;;;
2022/06/06 06:50:31;;;;;;;6.3;1.1;;;;;;;26.85;44.62109;939.9758;;;;
2022/06/06 06:52:59;;;;;;;1.4;1;;;;;;;25.61;46.58887;939.959;;;;
2022/06/06 06:55:24;;;;;;;1.5;1.1;;;;;;;29.25;40.83301;939.9498;;;;
2022/06/06 06:57:51;;;;;;;2.2;1;;;;;;;29.06;40.56641;939.9533;;;;
2022/06/06 07:00:20;;;;;;;1.5;1.1;;;;;;;30.65;38.25977;939.8942;;;;
2022/06/06 07:10:02;;;;;;;0.9;0.9;;;;;;;29.49;36.68359;939.903;;;;
2022/06/06 07:12:26;;;;;;;1.4;0.9;;;;;;;28.63;39.18262;939.9622;;;;
2022/06/06 07:14:51;;;;;;;1.2;1.1;;;;;;;30.86;37.11719;939.9562;;;;
2022/06/06 07:17:16;;;;;;;1.1;0.8;;;;;;;31.73;35.64453;939.939;;;;
2022/06/06 07:19:41;;;;;;;1.5;1;;;;;;;31.47;34.58203;939.9579;;;;
2022/06/06 07:22:08;;;;;;;2.5;1;;;;;;;30.03;37.65723;939.9841;;;;
2022/06/06 07:24:34;;;;;;;1.6;1.1;;;;;;;29.82;37.60547;939.9359;;;;
2022/06/06 07:27:00;;;;;;;1.3;1;;;;;;;31.16;35.73145;939.9155;;;;
2022/06/06 07:29:25;;;;;;;2.2;0.9;;;;;;;31.89;34.70996;939.9565;;;;
2022/06/06 07:31:51;;;;;;;1.1;1;;;;;;;32.63;33.20605;939.9719;;;;
2022/06/06 07:34:16;;;;;;;1;0.9;;;;;;;33.91;31.2666;939.9419;;;;
2022/06/06 07:36:41;;;;;;;1.2;1;;;;;;;33.11;31.84766;939.8767;;;;
2022/06/06 07:39:06;;;;;;;0.9;0.9;;;;;;;33.42;33.46777;939.7983;;;;
2022/06/06 07:41:31;;;;;;;1.3;0.9;;;;;;;31.87;34.46973;939.884;;;;
2022/06/06 07:43:57;;;;;;;0.9;0.8;;;;;;;31.87;34.94922;939.8248;;;;
2022/06/06 07:46:23;;;;;;;1.6;1.1;;;;;;;32.5;34.03613;939.8508;;;;
2022/06/06 07:48:48;;;;;;;1.2;1.1;;;;;;;31.25;35.60645;939.8361;;;;
2022/06/06 07:51:14;;;;;;;1;0.9;;;;;;;31.82;35.92676;939.8297;;;;
2022/06/06 07:53:40;;;;;;;1;0.9;;;;;;;32.91;31.85742;939.834;;;;
2022/06/06 07:56:06;;;;;;;1.2;1.1;;;;;;;32.29;33.31348;939.7592;;;;
2022/06/06 07:58:31;;;;;;;1.1;1;;;;;;;31.76;35.71777;939.7906;;;;
2022/06/06 08:00:56;;;;;;;3.4;1.1;;;;;;;31.44;36.72266;939.7578;;;;
2022/06/06 08:03:23;;;;;;;2.4;1;;;;;;;31.31;36.87988;939.7194;;;;
2022/06/06 08:05:48;;;;;;;6.1;1.6;;;;;;;30.18;36.5957;939.7195;;;;
2022/06/06 08:08:15;;;;;;;1.8;1;;;;;;;28.46;42.67676;939.6983;;;;
2022/06/06 08:10:43;;;;;;;1.1;1;;;;;;;26.65;44.4707;939.6614;;;;
2022/06/06 08:13:08;;;;;;;0.9;0.9;;;;;;;27.48;41.65723;939.6244;;;;
2022/06/06 08:15:33;;;;;;;1;1;;;;;;;28.78;43.86035;939.6086;;;;
2022/06/06 08:17:58;;;;;;;1.3;1.2;;;;;;;28.71;42.5332;939.6325;;;;
2022/06/06 08:20:24;;;;;;;1.8;1.2;;;;;;;29.67;42.34961;939.5672;;;;
2022/06/06 08:22:49;;;;;;;1.1;1;;;;;;;29.14;42.14551;939.6033;;;;
2022/06/06 08:25:19;;;;;;;0.9;0.9;;;;;;;28.85;42.96289;939.5506;;;;
2022/06/06 08:27:43;;;;;;;2;1;;;;;;;27.57;42.85352;939.6152;;;;
2022/06/06 08:30:10;;;;;;;1.4;1.1;;;;;;;26.8;45.38672;939.5506;;;;
2022/06/06 08:32:35;;;;;;;1.8;1.3;;;;;;;28.19;44.23047;939.5313;;;;
2022/06/06 08:35:00;;;;;;;2.3;1.1;;;;;;;28.04;42.80176;939.5504;;;;
2022/06/06 08:37:26;;;;;;;1.5;1.1;;;;;;;30.41;38.13184;939.4922;;;;
2022/06/06 08:39:50;;;;;;;1.1;1;;;;;;;29.85;40.66113;939.4973;;;;
2022/06/06 08:42:17;;;;;;;2.8;1.1;;;;;;;31.22;36.7041;939.4495;;;;
2022/06/06 08:44:41;;;;;;;1.7;1.1;;;;;;;30.75;39.78613;939.4568;;;;
2022/06/06 08:47:06;;;;;;;2.5;1.1;;;;;;;32.66;35.28516;939.4609;;;;
2022/06/06 08:51:56;;;;;;;2.5;1.3;;;;;;;31.92;34.34082;939.4274;;;;
2022/06/06 08:54:21;;;;;;;1.1;0.9;;;;;;;31.13;36.72168;939.42;;;;
2022/06/06 08:56:46;;;;;;;1.2;1.1;;;;;;;29.05;42.4707;939.4103;;;;
2022/06/06 08:59:12;;;;;;;1.4;1.2;;;;;;;28.5;42.2627;939.416;;;;
2022/06/06 09:01:38;;;;;;;1.6;1.1;;;;;;;28.02;42.83594;939.3374;;;;
2022/06/06 09:04:03;;;;;;;1.2;1.1;;;;;;;27.54;47.40625;939.3406;;;;
2022/06/06 09:07:17;;;;;;;2.4;1.2;;;;;;;27.76;43.98633;939.2708;;;;
2022/06/06 09:09:40;;;;;;;1.7;1.2;;;;;;;28.3;43.75488;939.264;;;;
2022/06/06 09:13:38;;;;;;;2.2;1.2;;;;;;;29.92;39.97559;939.2764;;;;
2022/06/06 09:16:03;;;;;;;2.6;1.4;;;;;;;29.36;39.73535;939.216;;;;
2022/06/06 09:18:29;;;;;;;1.4;1.3;;;;;;;30.36;41.54297;939.2089;;;;
2022/06/06 09:22:04;;;;;;;1.4;1.1;;;;;;;31.61;37.16699;939.1345;;;;
2022/06/06 09:24:29;;;;;;;1.6;1.1;;;;;;;27.93;43.64648;939.0538;;;;
2022/06/06 09:26:54;;;;;;;3.1;1.4;;;;;;;26.81;50.10156;939.0258;;;;
2022/06/06 09:29:19;;;;;;;1.3;1.2;;;;;;;27.47;47.30371;939.045;;;;
2022/06/06 09:31:45;;;;;;;1.4;1;;;;;;;27.16;49.12207;938.9783;;;;
2022/06/06 09:34:11;;;;;;;1.2;1.1;;;;;;;27.28;49.71484;938.9723;;;;
2022/06/06 09:36:38;;;;;;;1.1;1;;;;;;;28.38;45.48633;939.0414;;;;
2022/06/06 09:39:01;;;;;;;2.5;1.2;;;;;;;28.34;45.42285;938.9375;;;;
2022/06/06 09:41:26;;;;;;;2.5;1.5;;;;;;;28.79;44.37305;939.0086;;;;
2022/06/06 09:43:52;;;;;;;1.4;1.3;;;;;;;29.53;42.5752;938.9895;;;;
2022/06/06 09:46:17;;;;;;;2.2;1.2;;;;;;;28.84;44.99707;939.0028;;;;
2022/06/06 09:48:54;;;;;;;2.8;1.4;;;;;;;28.47;46.80273;938.9956;;;;
2022/06/06 09:51:19;;;;;;;3.7;1.4;;;;;;;27.18;50.86621;938.9758;;;;
2022/06/06 09:59:05;;;;;;;1.3;1.2;;;;;;;25.05;54.0957;938.9497;;;;
2022/06/06 10:01:15;;;;;;;2.9;1.4;;;;;;;25.87;53.16504;938.9386;;;;
2022/06/06 10:05:41;;;;;;;1.7;1.3;;;;;;;25.38;52.38672;938.9177;;;;
2022/06/06 10:08:06;;;;;;;2.1;1.7;;;;;;;25.3;57.51367;938.8497;;;;
2022/06/06 10:10:31;;;;;;;3.1;1.3;;;;;;;25.21;54.46777;938.7859;;;;
2022/06/06 10:13:01;;;;;;;2.7;1.6;;;;;;;25.63;51.97949;938.7668;;;;
2022/06/06 10:15:28;;;;;;;2.6;1.2;;;;;;;25.59;51.09961;938.7007;;;;
2022/06/06 10:17:52;;;;;;;1.9;1.4;;;;;;;25.2;55.01074;938.7528;;;;
2022/06/06 10:20:18;;;;;;;1.9;1.6;;;;;;;25.38;52.66992;938.6528;;;;
2022/06/06 10:22:43;;;;;;;3.4;1.6;;;;;;;25.36;54.59277;938.6836;;;;
2022/06/06 10:25:09;;;;;;;1.4;1.3;;;;;;;25.09;53.02539;938.6976;;;;
2022/06/06 10:27:35;;;;;;;2.1;1.4;;;;;;;24.82;56.50879;938.7212;;;;
2022/06/06 10:30:12;;;;;;;2.3;1.8;;;;;;;24.78;57.66992;938.5734;;;;
2022/06/06 10:32:25;;;;;;;1.4;1.3;;;;;;;25.21;56.46289;938.6597;;;;
2022/06/06 10:34:51;;;;;;;1.5;1.4;;;;;;;25.53;51.6123;938.6287;;;;
2022/06/06 10:37:16;;;;;;;2.6;1.6;;;;;;;25.08;56.64746;938.6379;;;;
2022/06/06 10:39:41;;;;;;;2.9;1.4;;;;;;;25.72;52.88672;938.6119;;;;
2022/06/06 10:42:06;;;;;;;2.2;1.6;;;;;;;25.56;54.06152;938.5463;;;;
2022/06/06 10:44:31;;;;;;;2;1.3;;;;;;;25.28;54.85449;938.4512;;;;
2022/06/06 10:46:56;;;;;;;2.4;1.6;;;;;;;24.77;57.1748;938.497;;;;
2022/06/06 10:49:21;;;;;;;5.2;1.7;;;;;;;25.03;55.14258;938.5845;;;;
2022/06/06 10:51:47;;;;;;;2.3;1.6;;;;;;;25.16;56.30371;938.5198;;;;
2022/06/06 10:54:23;;;;;;;2.1;1.4;;;;;;;24.95;56.33691;938.5772;;;;
2022/06/06 10:56:48;;;;;;;2.9;1.7;;;;;;;24.61;56.83594;938.5301;;;;
2022/06/06 10:59:13;;;;;;;2.1;1.6;;;;;;;24.86;55.95996;938.5812;;;;
2022/06/06 11:01:38;;;;;;;1.8;1.6;;;;;;;24.65;54.94336;938.5219;;;;
2022/06/06 11:04:03;;;;;;;2.1;1.5;;;;;;;24.85;55.93359;938.5134;;;;
2022/06/06 11:06:28;;;;;;;2.2;1.4;;;;;;;25.11;54.07813;938.4872;;;;
2022/06/06 11:08:55;;;;;;;2.2;1.5;;;;;;;25.4;54.25488;938.4431;;;;
2022/06/06 11:11:20;;;;;;;2.3;1.7;;;;;;;25.44;54.30762;938.4396;;;;
2022/06/06 11:13:45;;;;;;;1.9;1.4;;;;;;;24.76;56.9375;938.3819;;;;
2022/06/06 11:16:10;;;;;;;4;1.6;;;;;;;25.19;56.87402;938.3856;;;;
2022/06/06 11:18:35;;;;;;;2.3;1.8;;;;;;;25.39;53.78125;938.3546;;;;
2022/06/06 11:21:17;;;;;;;3.6;2;;;;;;;25.41;55.03516;938.334;;;;
2022/06/06 11:23:44;;;;;;;1.7;1.6;;;;;;;25.56;52.43164;938.2839;;;;
2022/06/06 11:26:09;;;;;;;2.5;1.5;;;;;;;25.28;55.31543;938.2425;;;;
2022/06/06 11:28:35;;;;;;;1.5;1.3;;;;;;;25.6;54.66992;938.2653;;;;
2022/06/06 11:30:59;;;;;;;1.9;1.7;;;;;;;25.51;53.73633;938.2156;;;;
2022/06/06 11:33:24;;;;;;;3;1.7;;;;;;;25.7;54.51563;938.192;;;;
2022/06/06 11:35:49;;;;;;;3;2.7;;;;;;;26.08;51.52344;938.2444;;;;
2022/06/06 11:38:14;;;;;;;3.2;1.6;;;;;;;26.24;49.55371;938.2047;;;;
2022/06/06 11:40:41;;;;;;;2.4;1.7;;;;;;;26.03;53.43359;938.184;;;;
2022/06/06 11:43:06;;;;;;;1.9;1.5;;;;;;;25.46;54.4873;938.1891;;;;
2022/06/06 11:45:31;;;;;;;1.8;1.4;;;;;;;25.15;55.77148;938.157;;;;
2022/06/06 11:47:56;;;;;;;2.3;1.5;;;;;;;25.05;55.7002;938.0786;;;;
2022/06/06 11:50:21;;;;;;;3.3;1.8;;;;;;;24.56;55.72168;938.1283;;;;
2022/06/06 11:52:46;;;;;;;3.2;1.8;;;;;;;24.87;56.2793;938.0863;;;;
2022/06/06 11:55:14;;;;;;;2.5;1.8;;;;;;;24.64;56.65137;938.0679;;;;
2022/06/06 11:57:39;;;;;;;2.6;1.5;;;;;;;24.64;54.62402;937.9832;;;;
2022/06/06 12:00:07;;;;;;;8.5;7.7;;;;;;;25.04;53.2793;938.0034;;;;
2022/06/06 12:02:32;;;;;;;1.8;1.6;;;;;;;24.72;57.32129;937.9827;;;;
2022/06/06 12:04:57;;;;;;;2;1.6;;;;;;;24.46;58.26563;937.9725;;;;
2022/06/06 12:07:22;;;;;;;6.1;4.9;;;;;;;24.79;58.67676;938.0717;;;;
2022/06/06 12:09:47;;;;;;;1.6;1.4;;;;;;;25.13;54.97754;938.0446;;;;
2022/06/06 12:12:13;;;;;;;5.1;3.8;;;;;;;25.48;52.5293;937.9882;;;;
2022/06/06 12:14:38;;;;;;;2.7;2.2;;;;;;;25.66;51.20215;937.9849;;;;
2022/06/06 12:17:03;;;;;;;7.5;5.6;;;;;;;25.84;51.84961;938.0244;;;;
2022/06/06 12:19:30;;;;;;;2.4;2;;;;;;;26.11;51.38379;937.9679;;;;
2022/06/06 12:21:55;;;;;;;2.3;1.6;;;;;;;26.24;49.21094;937.981;;;;
2022/06/06 12:24:19;;;;;;;2.2;1.7;;;;;;;26.27;50.85742;938.0002;;;;
2022/06/06 12:26:45;;;;;;;2.4;1.6;;;;;;;25.46;53.91992;937.9119;;;;
2022/06/06 12:29:10;;;;;;;2.5;1.5;;;;;;;25.69;50.34277;937.8474;;;;
2022/06/06 12:31:35;;;;;;;1.9;1.5;;;;;;;25.8;51.20703;937.907;;;;
2022/06/06 12:34:00;;;;;;;1.8;1.7;;;;;;;25.69;56.67676;937.8669;;;;
2022/06/06 12:36:25;;;;;;;3.1;2.5;;;;;;;26.02;52.39063;937.8456;;;;
2022/06/06 12:38:50;;;;;;;2.2;1.6;;;;;;;25.02;57.57324;937.8016;;;;
2022/06/06 12:41:16;;;;;;;1.7;1.4;;;;;;;25.09;55.82422;937.8418;;;;
2022/06/06 12:43:41;;;;;;;2.7;1.7;;;;;;;24.94;57.25586;937.7718;;;;
2022/06/06 12:46:06;;;;;;;1.9;1.6;;;;;;;24.7;56.51563;937.7933;;;;
2022/06/06 12:48:31;;;;;;;2.8;1.6;;;;;;;24.99;53.94531;937.8022;;;;
2022/06/06 12:50:58;;;;;;;2.3;1.7;;;;;;;25.31;53.12207;937.7977;;;;
2022/06/06 12:53:26;;;;;;;1.9;1.8;;;;;;;25.41;53.69043;937.8022;;;;
2022/06/06 12:56:16;;;;;;;2.4;1.8;;;;;;;25.69;54.27832;937.7054;;;;
2022/06/06 12:58:16;;;;;;;4.7;1.9;;;;;;;25.72;53.02832;937.7358;;;;
2022/06/06 13:03:07;;;;;;;3.1;1.9;;;;;;;25.29;53.82813;937.6942;;;;
2022/06/06 13:05:32;;;;;;;19.9;13.1;;;;;;;25.59;52.89551;937.6942;;;;
2022/06/06 13:07:59;;;;;;;4.7;3.6;;;;;;;25.93;52.93652;937.7466;;;;
2022/06/06 13:10:25;;;;;;;2.9;1.7;;;;;;;25.8;51.4668;937.717;;;;
2022/06/06 13:12:50;;;;;;;4.6;4.2;;;;;;;26;51.38379;937.7504;;;;
2022/06/06 13:15:15;;;;;;;1.8;1.5;;;;;;;25.96;53.23535;937.7388;;;;
2022/06/06 13:17:40;;;;;;;2;1.8;;;;;;;25.95;50.85742;937.6965;;;;
2022/06/06 13:20:05;;;;;;;3.9;2.6;;;;;;;25.66;51.63965;937.676;;;;
2022/06/06 13:22:30;;;;;;;2.4;1.7;;;;;;;25.6;51.24316;937.7182;;;;
2022/06/06 13:24:55;;;;;;;2;1.6;;;;;;;25.38;52.17383;937.623;;;;
2022/06/06 13:27:22;;;;;;;4.8;4;;;;;;;25.37;51.25195;937.6346;;;;
2022/06/06 13:29:46;;;;;;;10.3;6;;;;;;;25.46;52.58496;937.6495;;;;
2022/06/06 13:32:11;;;;;;;20.5;14.7;;;;;;;25.17;52.59863;937.5327;;;;
2022/06/06 13:34:36;;;;;;;4.8;3.3;;;;;;;25.23;52.52246;937.5437;;;;
2022/06/06 13:37:01;;;;;;;4.1;1.8;;;;;;;25.07;54.47559;937.5168;;;;
2022/06/06 13:39:27;;;;;;;3;1.9;;;;;;;24.94;54.63672;937.5248;;;;
2022/06/06 13:41:52;;;;;;;2.4;1.6;;;;;;;24.97;55.20605;937.5308;;;;
2022/06/06 13:44:16;;;;;;;2.4;1.8;;;;;;;25.03;55.61426;937.5758;;;;
2022/06/06 13:46:43;;;;;;;1.9;1.7;;;;;;;25.24;51.22559;937.5025;;;;
2022/06/06 13:49:06;;;;;;;2.1;1.6;;;;;;;25.53;51.68457;937.4308;;;;
2022/06/06 13:51:32;;;;;;;2.7;1.9;;;;;;;25.47;52.64551;937.5004;;;;
2022/06/06 13:53:57;;;;;;;2;1.7;;;;;;;25.81;49.70703;937.3892;;;;
2022/06/06 13:56:22;;;;;;;2.4;1.5;;;;;;;24.71;54.30176;937.3898;;;;
2022/06/06 13:58:47;;;;;;;2.6;1.7;;;;;;;24.72;56.70801;937.3329;;;;
2022/06/06 14:01:12;;;;;;;1.7;1.6;;;;;;;24.53;55.39941;937.2104;;;;
2022/06/06 14:03:37;;;;;;;3.8;1.9;;;;;;;24.29;57.88965;937.3181;;;;
2022/06/06 14:06:02;;;;;;;2.5;1.7;;;;;;;24.2;58.30371;937.3547;;;;
2022/06/06 14:08:29;;;;;;;3.7;1.8;;;;;;;24.36;55.82715;937.4084;;;;
2022/06/06 14:10:55;;;;;;;1.9;1.7;;;;;;;24.71;54.43262;937.4147;;;;
2022/06/06 14:13:19;;;;;;;1.8;1.7;;;;;;;24.81;53.65332;937.3352;;;;
2022/06/06 14:15:44;;;;;;;1.9;1.6;;;;;;;24.86;52.9873;937.4065;;;;
2022/06/06 14:18:10;;;;;;;1.8;1.7;;;;;;;25.07;52.19629;937.4642;;;;
2022/06/06 14:20:34;;;;;;;2;1.9;;;;;;;24.77;56.56152;937.4193;;;;
2022/06/06 14:22:59;;;;;;;2;1.6;;;;;;;24.74;56.46387;937.4484;;;;
2022/06/06 14:25:25;;;;;;;2.4;1.9;;;;;;;24.41;56.75195;937.4572;;;;
2022/06/06 14:27:50;;;;;;;2.4;1.7;;;;;;;24.46;57.07715;937.3546;;;;
2022/06/06 14:30:17;;;;;;;1.7;1.6;;;;;;;24.33;57.40039;937.3661;;;;
2022/06/06 14:32:42;;;;;;;2;1.9;;;;;;;24.42;57.97852;937.4551;;;;
2022/06/06 14:35:10;;;;;;;2.4;1.8;;;;;;;24.53;57.26172;937.4059;;;;
2022/06/06 14:37:35;;;;;;;2.5;1.9;;;;;;;24.74;56.11035;937.4282;;;;
2022/06/06 14:40:01;;;;;;;1.9;1.7;;;;;;;24.4;57.50488;937.4056;;;;
2022/06/06 14:42:26;;;;;;;4.2;2;;;;;;;24.64;56.79199;937.4192;;;;
2022/06/06 14:44:51;;;;;;;2.5;2.1;;;;;;;24.82;54.99902;937.4064;;;;
2022/06/06 14:47:17;;;;;;;3.1;1.9;;;;;;;25.06;53.25781;937.3995;;;;
2022/06/06 14:49:42;;;;;;;2.9;1.7;;;;;;;25.14;53.26855;937.4727;;;;
2022/06/06 14:52:07;;;;;;;3.2;1.7;;;;;;;25.04;55.51074;937.4769;;;;
2022/06/06 14:54:34;;;;;;;2;1.6;;;;;;;25.14;53.37305;937.4989;;;;
2022/06/06 14:57:01;;;;;;;1.9;1.8;;;;;;;25.22;53.75;937.3995;;;;
2022/06/06 14:59:24;;;;;;;1.7;1.6;;;;;;;25.11;55.12793;937.4492;;;;